Time;durP1;ratioP1;P1;durP2;ratioP2;P2;SDS_P1;SDS_P2;PMS_P1;PMS_P2;Temp;Humidity;BMP_temperature;BMP_pressure;BME280_temperature;BME280_humidity;BME280_pressure;Samples;Min_cycle;Max_cycle;Signal;HPM_P1;HPM_P2
2022/01/15 00:00:36;;;;;;;33.90;13.60;;;-3.70;99.90;;;;;;4945260;29;20027;-77
2022/01/15 00:03:03;;;;;;;47.33;14.77;;;-3.60;99.90;;;;;;4962535;29;20453;-76
2022/01/15 00:05:30;;;;;;;40.65;14.20;;;-3.00;99.90;;;;;;4963150;29;20390;-77
2022/01/15 00:07:57;;;;;;;41.25;14.65;;;-2.50;99.90;;;;;;4945663;29;20035;-76
2022/01/15 00:10:27;;;;;;;41.13;15.18;;;-1.10;99.90;;;;;;4944897;29;20046;-78
2022/01/15 00:12:54;;;;;;;37.08;13.35;;;-3.10;99.90;;;;;;4945181;29;20374;-77
2022/01/15 00:15:26;;;;;;;37.50;13.65;;;-2.10;99.90;;;;;;4961307;29;20323;-77
2022/01/15 00:18:00;;;;;;;41.72;14.95;;;-3.10;99.90;;;;;;4962158;29;20038;-78
2022/01/15 00:20:29;;;;;;;34.95;15.05;;;-1.20;99.90;;;;;;4961773;29;20046;-77
2022/01/15 00:22:58;;;;;;;46.65;16.10;;;-2.30;99.90;;;;;;4961727;29;20035;-77
2022/01/15 00:25:25;;;;;;;38.10;14.70;;;-3.10;99.90;;;;;;4961718;29;20031;-77
2022/01/15 00:27:51;;;;;;;37.28;14.40;;;-2.30;99.90;;;;;;4962446;29;20295;-77
2022/01/15 00:30:18;;;;;;;36.05;16.10;;;-1.80;99.90;;;;;;4961653;29;20043;-77
2022/01/15 00:32:44;;;;;;;33.72;15.27;;;-1.90;99.90;;;;;;4961521;29;20906;-77
2022/01/15 00:35:13;;;;;;;38.35;15.60;;;-1.90;99.90;;;;;;4961397;29;20023;-77
2022/01/15 00:37:39;;;;;;;41.20;15.30;;;-3.30;99.90;;;;;;4962401;29;20023;-77
2022/01/15 00:40:08;;;;;;;34.00;13.65;;;-2.40;99.90;;;;;;4961033;29;20144;-77
2022/01/15 00:42:36;;;;;;;36.22;15.68;;;-3.20;99.90;;;;;;4961479;29;20350;-78
2022/01/15 00:45:08;;;;;;;34.17;12.82;;;-3.10;99.90;;;;;;4943796;29;20339;-76
2022/01/15 00:47:34;;;;;;;37.88;13.10;;;-3.40;99.90;;;;;;4961429;28;20035;-77
2022/01/15 00:50:02;;;;;;;38.78;12.93;;;-3.50;99.90;;;;;;4961429;28;20046;-78
2022/01/15 00:52:28;;;;;;;36.40;14.50;;;-2.30;99.90;;;;;;4959758;29;20035;-77
2022/01/15 00:54:54;;;;;;;40.00;13.20;;;-2.00;99.90;;;;;;4960439;28;20033;-78
2022/01/15 00:57:20;;;;;;;38.20;15.05;;;-3.40;99.90;;;;;;4960968;29;20239;-77
2022/01/15 00:59:46;;;;;;;40.83;16.40;;;-1.90;99.90;;;;;;4961476;28;20339;-78
2022/01/15 01:02:12;;;;;;;32.00;13.30;;;-1.60;99.90;;;;;;4963069;28;20033;-77
2022/01/15 01:04:38;;;;;;;33.65;12.70;;;-1.40;99.90;;;;;;4962264;28;20035;-78
2022/01/15 01:07:04;;;;;;;36.58;15.18;;;-3.50;99.90;;;;;;4977112;28;20107;-78
2022/01/15 01:12:55;;;;;;;38.70;13.57;;;-3.40;99.90;;;;;;4960795;28;20031;-78
2022/01/15 01:23:32;;;;;;;30.92;11.35;;;-3.70;99.90;;;;;;4950709;28;20043;-78
2022/01/15 01:26:09;;;;;;;34.05;12.35;;;-3.60;99.90;;;;;;4959727;29;20023;-79
2022/01/15 01:28:40;;;;;;;33.13;10.93;;;-3.10;99.90;;;;;;4976235;28;20151;-78
2022/01/15 01:33:39;;;;;;;25.80;11.45;;;-3.70;99.90;;;;;;4961303;29;20095;-77
2022/01/15 01:38:40;;;;;;;36.05;12.90;;;-3.70;99.90;;;;;;4961499;28;20023;-78
2022/01/15 01:41:07;;;;;;;28.40;12.32;;;-1.10;99.90;;;;;;4960057;29;20030;-77
2022/01/15 01:48:49;;;;;;;38.15;12.25;;;-4.00;99.90;;;;;;4959301;29;20054;-77
2022/01/15 01:51:25;;;;;;;28.08;11.20;;;-3.70;99.90;;;;;;4959896;29;20023;-77
2022/01/15 01:53:52;;;;;;;39.88;13.75;;;-3.70;99.90;;;;;;4960261;29;20375;-79
2022/01/15 01:56:19;;;;;;;26.33;11.27;;;-3.70;99.90;;;;;;4942201;29;20050;-76
2022/01/15 01:58:45;;;;;;;36.15;14.45;;;-3.60;99.90;;;;;;4942727;29;20031;-77
2022/01/15 02:01:11;;;;;;;41.88;13.82;;;-3.70;99.90;;;;;;4959704;29;20027;-78
2022/01/15 02:03:38;;;;;;;44.53;16.00;;;-3.60;99.90;;;;;;4959697;29;20259;-76
2022/01/15 02:06:04;;;;;;;38.38;14.68;;;-2.30;99.90;;;;;;4942962;29;20246;-77
2022/01/15 02:08:36;;;;;;;34.65;13.57;;;-2.20;99.90;;;;;;4959497;29;20126;-78
2022/01/15 02:11:04;;;;;;;33.67;14.40;;;-3.60;99.90;;;;;;4959546;29;20094;-78
2022/01/15 02:13:31;;;;;;;35.17;15.55;;;-1.70;99.90;;;;;;4942205;29;20060;-77
2022/01/15 02:15:58;;;;;;;41.78;13.50;;;-3.60;99.90;;;;;;4959705;29;20020;-78
2022/01/15 02:18:28;;;;;;;37.70;14.20;;;-1.80;99.90;;;;;;4959617;29;20042;-77
2022/01/15 02:23:33;;;;;;;33.65;12.73;;;-4.10;99.90;;;;;;4958685;29;20039;-78
2022/01/15 02:26:03;;;;;;;31.52;12.07;;;-2.70;99.90;;;;;;4942236;29;20038;-77
2022/01/15 02:28:32;;;;;;;27.95;11.00;;;-4.30;99.90;;;;;;4942529;29;20039;-78
2022/01/15 02:31:10;;;;;;;27.27;10.85;;;-3.80;99.90;;;;;;4942501;29;20035;-77
2022/01/15 02:33:37;;;;;;;28.80;9.32;;;-4.60;99.90;;;;;;4960093;29;20426;-77
2022/01/15 02:36:12;;;;;;;36.45;12.07;;;-4.60;99.90;;;;;;4942881;29;20031;-77
2022/01/15 02:38:39;;;;;;;27.15;10.98;;;-4.70;99.90;;;;;;4941805;29;20042;-77
2022/01/15 02:41:05;;;;;;;26.30;10.13;;;-4.70;99.90;;;;;;4942685;29;20326;-76
2022/01/15 02:43:33;;;;;;;24.75;10.80;;;-4.70;99.90;;;;;;4941900;29;20023;-77
2022/01/15 02:46:34;;;;;;;31.25;12.52;;;-4.80;99.90;;;;;;4959408;29;20023;-76
2022/01/15 02:48:55;;;;;;;27.08;11.13;;;-4.70;99.90;;;;;;4957943;29;20063;-78
2022/01/15 02:51:22;;;;;;;33.72;11.73;;;-4.60;99.90;;;;;;4958728;29;20036;-78
2022/01/15 02:53:55;;;;;;;30.50;10.43;;;-4.60;99.90;;;;;;4941784;29;20215;-78
2022/01/15 02:56:35;;;;;;;23.85;10.68;;;-4.50;99.90;;;;;;4942972;29;20031;-78
2022/01/15 02:59:03;;;;;;;31.15;9.13;;;-4.70;99.90;;;;;;4959324;29;20215;-77
2022/01/15 03:01:29;;;;;;;33.85;11.43;;;-4.80;99.90;;;;;;4943197;29;20077;-78
2022/01/15 03:03:55;;;;;;;32.75;11.95;;;-4.60;99.90;;;;;;4942535;29;20015;-78
2022/01/15 03:06:22;;;;;;;37.13;13.30;;;-4.70;99.90;;;;;;4959981;29;20042;-77
2022/01/15 03:08:49;;;;;;;27.58;10.35;;;-3.60;99.90;;;;;;4942353;29;20047;-78
2022/01/15 03:11:15;;;;;;;32.47;11.88;;;-4.50;99.90;;;;;;4942372;29;20082;-76
2022/01/15 03:13:43;;;;;;;28.67;12.70;;;-4.50;99.90;;;;;;4959077;29;20331;-77
2022/01/15 03:16:11;;;;;;;34.60;12.25;;;-4.30;99.90;;;;;;4941504;29;20239;-77
2022/01/15 03:18:37;;;;;;;38.77;11.37;;;-4.20;99.90;;;;;;4961109;28;20031;-77
2022/01/15 03:21:03;;;;;;;37.92;11.82;;;-4.30;99.90;;;;;;4963023;29;20586;-77
2022/01/15 03:23:29;;;;;;;35.05;12.90;;;-4.30;99.90;;;;;;4944278;29;20019;-77
2022/01/15 03:25:55;;;;;;;30.27;11.77;;;-2.30;99.90;;;;;;4944921;29;20035;-77
2022/01/15 03:28:20;;;;;;;47.05;13.93;;;-4.40;99.90;;;;;;4962229;29;20139;-77
2022/01/15 03:30:46;;;;;;;35.88;12.07;;;-4.40;99.90;;;;;;4963057;29;20034;-79
2022/01/15 03:33:12;;;;;;;38.22;12.40;;;-4.30;99.90;;;;;;4962654;29;20023;-77
2022/01/15 03:35:38;;;;;;;37.47;12.57;;;-4.20;99.90;;;;;;4962518;29;20062;-78
2022/01/15 03:38:05;;;;;;;28.10;11.00;;;-4.30;99.90;;;;;;4963027;29;20059;-78
2022/01/15 03:40:32;;;;;;;31.88;11.02;;;-4.40;99.90;;;;;;4962925;29;20034;-78
2022/01/15 03:42:58;;;;;;;30.95;10.75;;;-4.60;99.90;;;;;;4945173;29;20377;-77
2022/01/15 03:45:25;;;;;;;30.25;10.68;;;-4.60;99.90;;;;;;4961606;29;20023;-79
2022/01/15 03:47:51;;;;;;;26.35;10.65;;;-2.30;99.90;;;;;;4961802;28;20075;-77
2022/01/15 03:50:18;;;;;;;30.77;10.88;;;-4.20;99.90;;;;;;4961955;29;20353;-78
2022/01/15 03:52:44;;;;;;;27.75;12.20;;;-2.70;99.90;;;;;;4962107;28;20253;-78
2022/01/15 03:55:11;;;;;;;31.48;11.02;;;-1.80;99.90;;;;;;4961439;28;20035;-77
2022/01/15 03:57:37;;;;;;;31.77;11.23;;;-4.30;99.90;;;;;;4962137;28;20034;-77
2022/01/15 04:00:12;;;;;;;33.10;12.55;;;-4.50;99.90;;;;;;4961025;28;20223;-78
2022/01/15 04:02:38;;;;;;;32.78;10.35;;;-4.60;99.90;;;;;;4961006;29;20023;-78
2022/01/15 04:05:04;;;;;;;34.22;11.77;;;-4.60;99.90;;;;;;4963202;28;20046;-77
2022/01/15 04:07:29;;;;;;;33.67;11.75;;;-4.60;99.90;;;;;;4961551;28;20046;-77
2022/01/15 04:09:55;;;;;;;28.85;13.23;;;-4.50;99.90;;;;;;4961596;29;20031;-77
2022/01/15 04:12:20;;;;;;;32.15;11.23;;;-4.60;99.90;;;;;;4960992;29;20158;-78
2022/01/15 04:14:46;;;;;;;28.60;12.38;;;-2.10;99.90;;;;;;4960142;29;20342;-78
2022/01/15 04:17:12;;;;;;;36.50;11.95;;;-4.70;99.90;;;;;;4960475;29;20223;-78
2022/01/15 04:19:40;;;;;;;31.50;11.55;;;-2.50;99.90;;;;;;4959313;29;20251;-81
2022/01/15 04:22:06;;;;;;;26.92;10.70;;;-4.90;99.90;;;;;;4960994;28;20023;-77
2022/01/15 04:24:31;;;;;;;26.83;10.02;;;-5.00;99.90;;;;;;4960631;29;20323;-78
2022/01/15 04:26:57;;;;;;;31.77;11.40;;;-5.10;99.90;;;;;;4961205;28;20125;-78
2022/01/15 04:29:23;;;;;;;28.45;12.23;;;-6.60;99.90;;;;;;4959731;28;20281;-77
2022/01/15 04:31:51;;;;;;;30.38;11.45;;;-4.90;99.90;;;;;;4959383;29;20062;-77
2022/01/15 04:34:20;;;;;;;26.38;10.50;;;-5.20;99.90;;;;;;4959294;29;20031;-78
2022/01/15 04:36:47;;;;;;;24.63;10.77;;;-5.20;99.90;;;;;;4961547;28;20035;-77
2022/01/15 04:39:13;;;;;;;31.98;11.40;;;-5.40;99.90;;;;;;4960681;28;20023;-77
2022/01/15 04:41:39;;;;;;;26.83;11.45;;;-5.40;99.90;;;;;;4960430;29;20039;-77
2022/01/15 04:44:05;;;;;;;26.75;10.40;;;-5.30;99.90;;;;;;4960534;28;20054;-76
2022/01/15 04:46:35;;;;;;;32.88;11.07;;;-5.20;99.90;;;;;;4960926;28;20031;-77
2022/01/15 04:49:01;;;;;;;25.27;9.57;;;-3.60;99.90;;;;;;4960376;29;20039;-77
2022/01/15 04:51:27;;;;;;;36.28;12.13;;;-5.00;99.90;;;;;;4943248;29;20122;-78
2022/01/15 04:53:53;;;;;;;31.30;10.68;;;-4.40;99.90;;;;;;4943578;29;20034;-77
2022/01/15 04:56:18;;;;;;;22.35;9.52;;;-5.00;99.90;;;;;;4943506;29;20015;-77
2022/01/15 04:58:44;;;;;;;30.77;11.27;;;-3.40;99.90;;;;;;4960877;29;20027;-77
2022/01/15 05:01:10;;;;;;;31.92;11.80;;;-5.20;99.90;;;;;;4961043;29;20047;-78
2022/01/15 05:03:35;;;;;;;33.67;11.85;;;-5.20;99.90;;;;;;4961067;29;20113;-77
2022/01/15 05:06:01;;;;;;;34.97;12.07;;;-3.10;99.90;;;;;;4960768;29;20035;-78
2022/01/15 05:08:27;;;;;;;37.55;12.07;;;-4.40;99.90;;;;;;4960650;29;20066;-78
2022/01/15 05:10:57;;;;;;;36.30;11.52;;;-4.60;99.90;;;;;;4961446;29;20123;-79
2022/01/15 05:13:27;;;;;;;43.30;11.18;;;-4.60;99.90;;;;;;4943160;29;20264;-77
2022/01/15 05:15:53;;;;;;;32.75;10.95;;;-4.70;99.90;;;;;;4961223;29;20035;-78
2022/01/15 05:18:18;;;;;;;30.95;13.30;;;-5.00;99.90;;;;;;4960041;29;20058;-78
2022/01/15 05:20:45;;;;;;;29.63;11.13;;;-5.10;99.90;;;;;;4960810;29;20055;-77
2022/01/15 05:23:11;;;;;;;28.45;9.75;;;-5.30;99.90;;;;;;4942810;29;20062;-77
2022/01/15 05:25:38;;;;;;;31.02;9.75;;;-5.40;99.90;;;;;;4942119;29;20030;-78
2022/01/15 05:28:04;;;;;;;27.20;9.90;;;-5.60;99.90;;;;;;4960114;29;20039;-78
2022/01/15 05:30:32;;;;;;;29.48;10.15;;;-5.60;99.90;;;;;;4959752;29;20031;-79
2022/01/15 05:32:58;;;;;;;29.70;11.70;;;-5.60;99.90;;;;;;4959971;29;20260;-79
2022/01/15 05:35:27;;;;;;;28.70;9.73;;;-5.60;99.90;;;;;;4942966;29;20055;-79
2022/01/15 05:37:53;;;;;;;27.55;9.02;;;-5.60;99.90;;;;;;4954291;29;20456;-79
2022/01/15 05:40:19;;;;;;;28.17;11.95;;;-5.60;99.90;;;;;;4947618;28;20114;-79
2022/01/15 05:42:46;;;;;;;27.58;10.18;;;-5.60;99.90;;;;;;4929523;28;20091;-79
2022/01/15 05:45:12;;;;;;;27.27;9.50;;;-5.50;99.90;;;;;;4951635;28;20015;-79
2022/01/15 05:47:38;;;;;;;29.65;10.52;;;-5.70;99.90;;;;;;4937549;28;20076;-78
2022/01/15 05:50:04;;;;;;;29.80;10.27;;;-5.70;99.90;;;;;;4935409;28;20443;-78
2022/01/15 05:52:30;;;;;;;29.73;10.68;;;-5.60;99.90;;;;;;4944379;28;20039;-79
2022/01/15 05:54:56;;;;;;;31.80;11.43;;;-2.50;99.90;;;;;;4962247;28;20147;-79
2022/01/15 05:57:21;;;;;;;28.55;10.35;;;-3.70;99.90;;;;;;4939851;28;20524;-78
2022/01/15 05:59:47;;;;;;;27.83;12.32;;;-7.30;99.90;;;;;;4966444;28;20435;-79
2022/01/15 06:02:13;;;;;;;29.27;10.75;;;-3.90;99.90;;;;;;4949924;28;20543;-79
2022/01/15 06:04:38;;;;;;;29.95;10.95;;;-5.20;99.90;;;;;;4952864;28;20291;-79
2022/01/15 06:07:04;;;;;;;27.98;10.43;;;-5.30;99.90;;;;;;4933387;28;20033;-80
2022/01/15 06:09:29;;;;;;;29.23;9.68;;;-5.30;99.90;;;;;;4933693;28;20030;-79
2022/01/15 06:11:56;;;;;;;23.38;10.88;;;-5.40;99.90;;;;;;4956239;28;20026;-79
2022/01/15 06:14:22;;;;;;;24.73;9.52;;;-5.40;99.90;;;;;;4951623;28;20039;-79
2022/01/15 06:16:48;;;;;;;27.80;9.43;;;-5.50;99.90;;;;;;4939808;28;20027;-80
2022/01/15 06:19:14;;;;;;;32.88;10.35;;;-5.40;99.90;;;;;;4930532;28;20102;-79
2022/01/15 06:21:39;;;;;;;34.72;11.23;;;-5.40;99.90;;;;;;4956238;28;20023;-79
2022/01/15 06:24:05;;;;;;;27.35;10.13;;;-5.40;99.90;;;;;;4937828;28;20108;-79
2022/01/15 06:26:31;;;;;;;29.45;9.63;;;-5.60;99.90;;;;;;4934185;28;20023;-80
2022/01/15 06:28:57;;;;;;;32.47;11.88;;;-5.40;99.90;;;;;;4940358;28;20043;-79
2022/01/15 06:31:22;;;;;;;19.95;8.13;;;-5.30;99.90;;;;;;4936531;28;20028;-79
2022/01/15 06:33:48;;;;;;;27.92;9.63;;;-5.30;99.90;;;;;;4934257;28;20031;-79
2022/01/15 06:36:14;;;;;;;24.55;9.43;;;-5.40;99.90;;;;;;4932180;28;20024;-79
2022/01/15 06:38:39;;;;;;;25.58;11.73;;;-5.40;99.90;;;;;;4929886;28;20662;-79
2022/01/15 06:41:05;;;;;;;21.33;8.63;;;-5.40;99.90;;;;;;4934907;28;20542;-79
2022/01/15 06:43:30;;;;;;;31.30;10.50;;;-4.40;99.90;;;;;;4933516;28;20395;-81
2022/01/15 06:45:56;;;;;;;32.15;10.70;;;-5.70;99.90;;;;;;4953717;28;20035;-78
2022/01/15 06:48:22;;;;;;;28.98;10.07;;;-5.80;99.90;;;;;;4952684;28;20364;-79
2022/01/15 06:50:48;;;;;;;25.33;10.15;;;-5.90;99.90;;;;;;4939759;28;20027;-79
2022/01/15 06:53:13;;;;;;;24.45;9.18;;;-5.90;99.90;;;;;;4933704;28;20126;-79
2022/01/15 06:55:40;;;;;;;29.55;10.57;;;-5.90;99.90;;;;;;4949758;28;20026;-79
2022/01/15 06:58:05;;;;;;;33.90;9.85;;;-5.90;99.90;;;;;;4955040;28;20036;-79
2022/01/15 07:00:31;;;;;;;22.25;8.80;;;-5.90;99.90;;;;;;4943363;28;20338;-79
2022/01/15 07:03:00;;;;;;;23.63;8.30;;;-5.80;99.90;;;;;;4963246;28;20046;-79
2022/01/15 07:05:26;;;;;;;;;;;-4.20;99.90;;;;;;4947075;28;20026;-78
2022/01/15 07:07:52;;;;;;;23.77;8.63;;;-5.60;99.90;;;;;;4965611;28;20371;-78
2022/01/15 07:10:18;;;;;;;23.60;8.07;;;-5.30;99.90;;;;;;4967605;28;20023;-79
2022/01/15 07:12:44;;;;;;;24.80;8.93;;;-5.20;99.90;;;;;;4962913;28;20033;-78
2022/01/15 07:15:11;;;;;;;25.80;10.35;;;-5.60;99.90;;;;;;4943419;28;20049;-77
2022/01/15 07:17:42;;;;;;;28.63;8.70;;;-5.80;99.90;;;;;;4946581;28;20349;-75
2022/01/15 07:20:09;;;;;;;33.13;10.93;;;-5.90;99.90;;;;;;4976904;28;20082;-79
2022/01/15 07:22:35;;;;;;;41.65;14.05;;;-5.90;99.90;;;;;;4959741;28;20231;-77
2022/01/15 07:25:01;;;;;;;35.17;12.55;;;-5.90;99.90;;;;;;4954908;28;20022;-79
2022/01/15 07:27:27;;;;;;;36.20;11.65;;;-4.30;99.90;;;;;;4973493;28;20101;-76
2022/01/15 07:29:52;;;;;;;33.20;11.82;;;-5.60;99.90;;;;;;4968250;28;20022;-81
2022/01/15 07:32:18;;;;;;;36.15;9.77;;;-5.40;99.90;;;;;;4971087;28;20121;-79
2022/01/15 07:34:44;;;;;;;25.98;9.95;;;-5.30;99.90;;;;;;4978110;28;20031;-77
2022/01/15 07:37:09;;;;;;;22.92;10.88;;;-5.30;99.90;;;;;;4978216;28;20349;-77
2022/01/15 07:39:36;;;;;;;31.77;11.48;;;-5.20;99.90;;;;;;4977666;28;20353;-81
2022/01/15 07:42:03;;;;;;;40.92;12.75;;;-5.20;99.90;;;;;;4978336;28;20287;-79
2022/01/15 07:44:28;;;;;;;46.38;10.98;;;-5.20;99.90;;;;;;4977460;28;20090;-77
2022/01/15 07:46:54;;;;;;;32.63;11.48;;;-5.20;99.90;;;;;;4960919;28;20207;-77
2022/01/15 07:49:20;;;;;;;37.40;13.60;;;-3.50;99.90;;;;;;4958382;29;20058;-78
2022/01/15 07:51:46;;;;;;;72.00;12.15;;;-5.00;99.90;;;;;;4958933;29;20037;-79
2022/01/15 07:54:12;;;;;;;35.38;10.32;;;-4.60;99.90;;;;;;4935037;28;20117;-79
2022/01/15 07:56:37;;;;;;;41.15;12.07;;;-5.00;99.90;;;;;;4960972;28;20455;-78
2022/01/15 07:59:03;;;;;;;36.78;10.82;;;-4.90;99.90;;;;;;4940678;29;20230;-76
2022/01/15 08:01:29;;;;;;;53.72;11.65;;;-4.90;99.90;;;;;;4958164;29;20103;-78
2022/01/15 08:03:55;;;;;;;26.45;9.75;;;-4.00;99.90;;;;;;4958506;28;20046;-78
2022/01/15 08:06:21;;;;;;;34.47;11.07;;;-4.70;99.90;;;;;;4944135;29;20331;-77
2022/01/15 08:08:46;;;;;;;46.55;12.40;;;-2.00;99.90;;;;;;4961492;29;20397;-79
2022/01/15 08:11:12;;;;;;;42.05;10.45;;;-4.60;99.90;;;;;;4958631;29;20357;-79
2022/01/15 08:13:38;;;;;;;32.10;10.23;;;-4.50;99.90;;;;;;4958231;29;20043;-76
2022/01/15 08:16:07;;;;;;;29.25;11.30;;;-3.00;99.90;;;;;;4959682;28;20023;-78
2022/01/15 08:18:33;;;;;;;46.08;10.55;;;-4.50;99.90;;;;;;4946885;29;20102;-81
2022/01/15 08:20:59;;;;;;;49.25;10.60;;;-4.40;99.90;;;;;;4957184;28;20069;-81
2022/01/15 08:23:25;;;;;;;37.03;11.55;;;-4.40;99.90;;;;;;4969875;28;20034;-77
2022/01/15 08:25:51;;;;;;;66.45;10.18;;;-4.40;99.90;;;;;;4976733;28;20082;-76
2022/01/15 08:28:17;;;;;;;55.83;12.45;;;-1.60;99.90;;;;;;4970300;28;20046;-76
2022/01/15 08:30:44;;;;;;;58.38;12.77;;;-4.20;99.90;;;;;;4959548;28;20030;-77
2022/01/15 08:33:10;;;;;;;84.63;14.93;;;-1.70;99.90;;;;;;4976408;28;20033;-77
2022/01/15 08:35:35;;;;;;;62.63;12.88;;;-4.40;99.90;;;;;;4974650;28;20029;-79
2022/01/15 08:38:04;;;;;;;53.63;12.98;;;-2.40;99.90;;;;;;4957803;28;20031;-79
2022/01/15 08:40:32;;;;;;;81.93;12.47;;;-3.30;99.90;;;;;;4975155;28;20027;-77
2022/01/15 08:42:58;;;;;;;55.63;10.73;;;-3.00;99.90;;;;;;4955802;28;20106;-80
2022/01/15 08:45:26;;;;;;;48.55;12.20;;;-1.60;99.90;;;;;;4948254;29;20075;-76
2022/01/15 08:47:53;;;;;;;52.78;14.25;;;-2.00;99.90;;;;;;4948506;29;20496;-81
2022/01/15 08:50:19;;;;;;;50.53;12.60;;;-3.30;99.90;;;;;;4944453;28;20038;-80
2022/01/15 08:52:45;;;;;;;46.45;10.98;;;-1.80;99.90;;;;;;4948721;29;20016;-77
2022/01/15 08:55:11;;;;;;;86.13;11.60;;;-4.00;99.90;;;;;;4948723;29;20031;-80
2022/01/15 08:57:37;;;;;;;47.38;13.52;;;-4.10;99.90;;;;;;4931660;29;20031;-79
2022/01/15 09:00:08;;;;;;;61.67;13.32;;;-4.00;99.90;;;;;;4949597;29;20019;-76
2022/01/15 09:02:34;;;;;;;74.18;13.45;;;-4.10;99.90;;;;;;4949145;29;20106;-82
2022/01/15 09:05:00;;;;;;;40.95;12.30;;;-4.00;99.90;;;;;;4932517;29;20118;-76
2022/01/15 09:07:26;;;;;;;74.43;15.52;;;-3.90;99.90;;;;;;4949337;29;20047;-76
2022/01/15 09:09:51;;;;;;;61.75;13.60;;;-2.70;99.90;;;;;;4950549;29;20068;-79
2022/01/15 09:12:17;;;;;;;52.00;13.13;;;-2.80;99.90;;;;;;4950082;29;20031;-77
2022/01/15 09:14:43;;;;;;;54.33;13.07;;;-3.70;99.90;;;;;;4949719;28;20027;-83
2022/01/15 09:17:09;;;;;;;62.45;13.70;;;-2.60;99.90;;;;;;4931652;29;20027;-79
2022/01/15 09:19:35;;;;;;;62.05;10.95;;;-2.10;99.90;;;;;;4949208;29;20357;-78
2022/01/15 09:22:05;;;;;;;56.17;14.60;;;-2.30;99.90;;;;;;4949963;29;20387;-77
2022/01/15 09:24:31;;;;;;;64.80;12.32;;;-3.60;99.90;;;;;;4949268;29;20031;-77
2022/01/15 09:32:08;;;;;;;50.05;12.25;;;-3.20;99.90;;;;;;4950661;29;20054;-79
2022/01/15 09:34:36;;;;;;;49.70;11.73;;;-3.20;99.90;;;;;;4932452;29;20035;-84
2022/01/15 09:37:03;;;;;;;52.28;12.30;;;-1.90;99.90;;;;;;4946911;29;20523;-79
2022/01/15 09:39:29;;;;;;;44.05;12.27;;;-2.90;99.90;;;;;;4949453;28;20031;-77
2022/01/15 09:41:55;;;;;;;60.05;16.98;;;-3.00;99.90;;;;;;4949255;28;20027;-77
2022/01/15 09:44:25;;;;;;;29.20;10.98;;;-2.10;99.90;;;;;;4947327;29;20031;-79
2022/01/15 09:46:51;;;;;;;45.10;15.80;;;-3.00;99.90;;;;;;4934044;29;20280;-77
2022/01/15 09:49:19;;;;;;;31.15;12.57;;;-2.70;99.90;;;;;;4949951;29;20022;-81
2022/01/15 09:51:46;;;;;;;36.67;12.15;;;-1.90;99.90;;;;;;4950692;29;20530;-84
2022/01/15 09:54:13;;;;;;;44.42;11.48;;;-2.80;99.90;;;;;;4952108;29;20404;-77
2022/01/15 09:56:39;;;;;;;67.65;17.40;;;-2.20;99.90;;;;;;4950339;29;20054;-76
2022/01/15 09:59:05;;;;;;;55.55;15.30;;;-2.10;99.90;;;;;;4931586;29;20476;-77
2022/01/15 10:01:31;;;;;;;67.00;15.20;;;-1.90;99.90;;;;;;4947843;29;20106;-79
2022/01/15 10:03:57;;;;;;;48.75;15.27;;;-1.60;99.90;;;;;;4949088;29;20114;-77
2022/01/15 10:06:23;;;;;;;42.50;11.35;;;-1.20;99.90;;;;;;4949469;29;20027;-80
2022/01/15 10:09:21;;;;;;;47.25;12.27;;;-2.00;99.90;;;;;;4949209;29;20039;-77
2022/01/15 10:11:53;;;;;;;57.75;12.98;;;-2.50;99.90;;;;;;4940590;29;20102;-79
2022/01/15 10:14:32;;;;;;;47.33;12.82;;;-2.00;99.90;;;;;;4948931;29;20035;-77
2022/01/15 10:17:02;;;;;;;45.83;13.65;;;-2.70;99.90;;;;;;4948817;29;20476;-79
2022/01/15 10:19:36;;;;;;;38.72;14.18;;;-2.70;99.90;;;;;;4948153;29;20133;-80
2022/01/15 10:22:17;;;;;;;66.22;15.55;;;-2.80;99.90;;;;;;4948582;29;20118;-77
2022/01/15 10:24:55;;;;;;;74.90;19.20;;;-2.60;99.90;;;;;;4948993;29;20027;-78
2022/01/15 10:27:27;;;;;;;73.72;20.58;;;-2.50;99.90;;;;;;4948401;28;20031;-76
2022/01/15 10:29:57;;;;;;;85.57;20.83;;;-2.50;99.90;;;;;;4961098;28;20038;-77
2022/01/15 10:32:25;;;;;;;58.47;19.42;;;-2.00;99.90;;;;;;4931914;29;20060;-79
2022/01/15 10:34:51;;;;;;;64.47;23.52;;;-2.30;99.90;;;;;;4931940;29;20035;-77
2022/01/15 10:37:23;;;;;;;61.72;22.17;;;-2.50;99.90;;;;;;4949458;29;20042;-79
2022/01/15 10:39:54;;;;;;;52.60;17.10;;;-3.40;99.90;;;;;;4948464;29;20023;-76
2022/01/15 10:42:23;;;;;;;55.33;17.27;;;-1.50;99.90;;;;;;4947814;29;20090;-77
2022/01/15 10:44:53;;;;;;;30.08;12.40;;;-1.30;99.90;;;;;;4948066;29;20062;-78
2022/01/15 10:47:21;;;;;;;43.20;14.18;;;-1.50;99.90;;;;;;4948028;28;20145;-77
2022/01/15 10:49:47;;;;;;;58.75;17.50;;;-1.80;99.90;;;;;;4948005;28;20054;-79
2022/01/15 10:52:18;;;;;;;58.33;17.17;;;-0.40;99.90;;;;;;4948933;29;20055;-80
2022/01/15 10:54:52;;;;;;;51.08;15.18;;;-2.10;99.90;;;;;;4950165;29;20058;-79
2022/01/15 10:57:21;;;;;;;60.35;14.52;;;-1.40;99.90;;;;;;4947528;29;20038;-76
2022/01/15 11:00:22;;;;;;;38.83;15.07;;;-1.80;99.90;;;;;;4948114;28;20432;-78
2022/01/15 11:02:57;;;;;;;42.85;13.98;;;-1.80;99.90;;;;;;4947480;29;20128;-78
2022/01/15 11:05:22;;;;;;;61.13;16.80;;;0.40;99.90;;;;;;4948684;28;20384;-78
2022/01/15 11:07:48;;;;;;;56.55;16.17;;;-1.80;99.90;;;;;;4947213;29;20039;-77
2022/01/15 11:10:14;;;;;;;44.63;13.80;;;-1.70;99.90;;;;;;4948409;28;20046;-80
2022/01/15 11:12:40;;;;;;;47.50;15.57;;;-1.40;99.90;;;;;;4965778;28;20081;-79
2022/01/15 11:15:07;;;;;;;48.10;16.33;;;-1.30;99.90;;;;;;4941413;29;20035;-78
2022/01/15 11:17:33;;;;;;;46.60;16.10;;;-1.40;99.90;;;;;;4948955;29;20031;-79
2022/01/15 11:20:05;;;;;;;38.13;13.57;;;-1.20;99.90;;;;;;4948385;29;20047;-79
2022/01/15 11:22:33;;;;;;;43.13;16.55;;;-1.20;99.90;;;;;;4948192;29;20128;-79
2022/01/15 11:24:59;;;;;;;53.50;17.20;;;-1.40;99.90;;;;;;4948799;29;20031;-81
2022/01/15 11:27:29;;;;;;;41.55;14.95;;;-1.60;99.90;;;;;;4931841;29;20061;-78
2022/01/15 11:29:58;;;;;;;31.77;13.55;;;-1.50;99.90;;;;;;4949287;29;20126;-80
2022/01/15 11:32:27;;;;;;;;;;;-1.60;99.90;;;;;;4931999;29;20423;-79
2022/01/15 11:35:01;;;;;;;45.72;11.38;;;-1.40;99.90;;;;;;4930970;29;19960;-79
2022/01/15 11:37:27;;;;;;;42.33;15.25;;;-1.10;99.90;;;;;;4947971;29;20045;-80
2022/01/15 11:39:55;;;;;;;78.18;18.20;;;-1.30;99.90;;;;;;4933538;29;20486;-80
2022/01/15 11:42:33;;;;;;;43.55;15.35;;;-1.50;99.90;;;;;;4935615;29;20376;-80
2022/01/15 11:44:59;;;;;;;64.03;16.52;;;-1.10;99.90;;;;;;4922066;29;20031;-79
2022/01/15 11:47:26;;;;;;;55.47;17.63;;;-1.20;99.90;;;;;;4950504;29;20464;-79
2022/01/15 11:49:58;;;;;;;77.22;20.42;;;-1.20;99.90;;;;;;4941742;29;20027;-80
2022/01/15 11:52:24;;;;;;;47.92;16.67;;;;;;;;;;4952131;28;20102;-79
2022/01/15 11:55:04;;;;;;;47.88;17.90;;;-2.00;99.90;;;;;;4946125;29;20030;-80
2022/01/15 11:57:36;;;;;;;59.15;18.42;;;-1.80;99.90;;;;;;4961007;28;20389;-79
2022/01/15 12:00:29;;;;;;;41.20;15.18;;;-1.70;99.90;;;;;;4943087;28;20022;-79
2022/01/15 12:03:03;;;;;;;41.58;15.23;;;-1.30;99.90;;;;;;4957828;28;20507;-79
2022/01/15 12:05:35;;;;;;;47.03;15.77;;;-1.30;99.90;;;;;;4942244;28;20024;-79
2022/01/15 12:08:01;;;;;;;50.55;14.38;;;-1.10;99.90;;;;;;4945041;28;20038;-80
2022/01/15 12:10:40;;;;;;;42.35;15.30;;;-0.40;99.90;;;;;;4944706;28;20023;-77
2022/01/15 12:13:21;;;;;;;52.63;16.83;;;-1.20;99.90;;;;;;4940764;28;20038;-79
2022/01/15 12:15:49;;;;;;;53.25;16.52;;;-1.20;99.90;;;;;;4961221;28;20066;-78
2022/01/15 12:18:20;;;;;;;42.85;14.52;;;-1.40;99.90;;;;;;4940732;29;20062;-77
2022/01/15 12:20:46;;;;;;;57.40;16.48;;;-1.40;99.90;;;;;;4943679;28;20051;-79
2022/01/15 12:23:18;;;;;;;36.42;13.10;;;-1.50;99.90;;;;;;4939120;28;20101;-78
2022/01/15 12:25:48;;;;;;;42.92;12.27;;;-1.20;99.90;;;;;;4941281;28;20082;-79
2022/01/15 12:28:15;;;;;;;39.00;14.85;;;-1.00;99.90;;;;;;4935755;28;20034;-79
2022/01/15 12:30:54;;;;;;;46.17;11.93;;;-1.10;99.90;;;;;;4942530;28;20251;-80
2022/01/15 12:33:20;;;;;;;;;;;-1.10;99.90;;;;;;4939559;28;20061;-79
2022/01/15 12:35:53;;;;;;;40.38;13.77;;;-1.20;99.90;;;;;;4960411;28;19953;-78
2022/01/15 12:38:28;;;;;;;45.17;15.95;;;-1.20;99.90;;;;;;4957753;28;20027;-79
2022/01/15 12:41:04;;;;;;;34.55;15.45;;;-0.40;99.90;;;;;;4926202;28;20134;-79
2022/01/15 12:43:40;;;;;;;56.85;15.88;;;-1.20;99.90;;;;;;4943453;28;20026;-79
2022/01/15 12:46:12;;;;;;;32.70;12.20;;;-1.00;99.90;;;;;;4944621;28;20023;-79
2022/01/15 12:48:40;;;;;;;32.35;12.43;;;-0.70;99.90;;;;;;4960898;28;20034;-78
2022/01/15 12:51:11;;;;;;;47.22;14.15;;;-0.90;99.90;;;;;;4961484;28;20034;-80
2022/01/15 12:53:49;;;;;;;45.45;17.08;;;-0.90;99.90;;;;;;4957415;28;20023;-78
2022/01/15 12:56:18;;;;;;;41.20;14.43;;;-1.00;99.90;;;;;;4958211;28;20476;-78
2022/01/15 12:58:46;;;;;;;50.25;16.13;;;-0.40;99.90;;;;;;4942037;28;20037;-79
2022/01/15 13:01:19;;;;;;;49.75;16.17;;;-0.90;99.90;;;;;;4960034;28;20650;-78